Time;durP1;ratioP1;P1;durP2;ratioP2;P2;SDS_P1;SDS_P2;PMS_P1;PMS_P2;Temp;Humidity;BMP_temperature;BMP_pressure;BME280_temperature;BME280_humidity;BME280_pressure;Samples;Min_cycle;Max_cycle;Signal;HPM_P1;HPM_P2
2022/04/11 00:00:36;;;;;;;10.32;6.20;;;9.60;99.90;;;;;;5117562;28;20044;-66
2022/04/11 00:03:02;;;;;;;11.82;6.22;;;9.60;99.90;;;;;;5117396;28;20027;-65
2022/04/11 00:05:27;;;;;;;9.45;6.63;;;9.60;99.90;;;;;;5117416;28;20332;-65
2022/04/11 00:07:53;;;;;;;8.82;6.25;;;9.60;99.90;;;;;;5116936;28;20024;-65
2022/04/11 00:10:20;;;;;;;9.90;6.63;;;9.60;99.90;;;;;;5117319;28;20035;-66
2022/04/11 00:12:45;;;;;;;8.60;6.30;;;9.60;99.90;;;;;;5117347;28;20024;-65
2022/04/11 00:15:11;;;;;;;8.52;6.43;;;9.60;99.90;;;;;;5117371;28;20036;-66
2022/04/11 00:17:37;;;;;;;8.77;6.32;;;9.60;99.90;;;;;;5116603;28;20399;-66
2022/04/11 00:20:05;;;;;;;6.43;5.82;;;9.60;99.90;;;;;;5117607;28;20413;-65
2022/04/11 00:22:34;;;;;;;11.25;6.07;;;9.60;99.90;;;;;;5117209;28;20055;-66
2022/04/11 00:25:00;;;;;;;9.15;6.47;;;9.70;99.90;;;;;;5117149;28;20292;-66
2022/04/11 00:27:29;;;;;;;7.72;6.18;;;9.60;99.90;;;;;;5117360;28;20133;-66
2022/04/11 00:29:54;;;;;;;9.52;6.40;;;9.60;99.90;;;;;;5117222;28;20027;-66
2022/04/11 00:32:20;;;;;;;9.00;6.28;;;9.60;99.90;;;;;;5099385;28;20084;-65
2022/04/11 00:34:47;;;;;;;7.93;6.28;;;9.60;99.90;;;;;;5116414;28;20073;-66
2022/04/11 00:37:12;;;;;;;8.88;6.78;;;9.60;99.90;;;;;;5116478;28;20031;-65
2022/04/11 00:39:38;;;;;;;8.88;7.03;;;9.50;99.90;;;;;;5117569;28;20024;-66
2022/04/11 00:42:12;;;;;;;9.80;6.60;;;9.50;99.90;;;;;;5116936;28;20058;-66
2022/04/11 00:44:38;;;;;;;9.25;6.55;;;9.50;99.90;;;;;;5116213;28;20063;-66
2022/04/11 00:47:04;;;;;;;9.55;7.10;;;9.40;99.90;;;;;;5117161;28;20016;-65
2022/04/11 00:49:30;;;;;;;8.32;6.40;;;9.40;99.90;;;;;;5116298;28;20028;-65
2022/04/11 00:51:57;;;;;;;8.05;6.85;;;9.40;99.90;;;;;;5117265;28;20039;-65
2022/04/11 00:54:24;;;;;;;8.35;6.45;;;9.30;99.90;;;;;;5117426;28;20046;-65
2022/04/11 00:56:50;;;;;;;13.15;7.22;;;9.30;99.90;;;;;;5116107;28;20028;-65
2022/04/11 00:59:22;;;;;;;8.82;6.95;;;9.30;99.90;;;;;;5116977;28;20089;-66
2022/04/11 01:01:48;;;;;;;7.90;6.60;;;9.30;99.90;;;;;;5116575;28;20473;-66
2022/04/11 01:04:23;;;;;;;10.80;6.82;;;9.30;99.90;;;;;;5116142;28;20036;-65
2022/04/11 01:06:50;;;;;;;7.57;6.28;;;9.20;99.90;;;;;;5116320;28;20038;-66
2022/04/11 01:09:17;;;;;;;8.48;6.72;;;9.20;99.90;;;;;;5116584;28;20112;-66
2022/04/11 01:11:43;;;;;;;8.43;6.75;;;9.10;99.90;;;;;;5116992;28;20067;-66
2022/04/11 01:14:09;;;;;;;10.27;6.82;;;9.10;99.90;;;;;;5116076;28;20035;-66
2022/04/11 01:16:35;;;;;;;8.48;6.63;;;9.10;99.90;;;;;;5117050;28;20041;-65
2022/04/11 01:19:00;;;;;;;9.75;7.10;;;9.00;99.90;;;;;;5117661;28;20027;-66
2022/04/11 01:21:31;;;;;;;9.95;7.28;;;9.00;99.90;;;;;;5119619;28;20042;-66
2022/04/11 01:23:59;;;;;;;8.07;6.45;;;9.00;99.90;;;;;;5119386;28;20047;-66
2022/04/11 01:26:26;;;;;;;8.52;6.47;;;8.80;99.90;;;;;;5119449;28;20407;-66
2022/04/11 01:28:53;;;;;;;9.80;7.00;;;8.70;99.90;;;;;;5119452;28;20096;-66
2022/04/11 01:31:19;;;;;;;11.98;7.47;;;8.70;99.90;;;;;;5119502;28;20023;-66
2022/04/11 01:33:45;;;;;;;11.27;7.28;;;8.60;99.90;;;;;;5119463;28;20043;-65
2022/04/11 01:36:11;;;;;;;8.48;7.55;;;8.50;99.90;;;;;;5120545;28;20032;-66
2022/04/11 01:38:37;;;;;;;13.73;8.13;;;8.50;99.90;;;;;;5119710;28;20035;-66
2022/04/11 01:41:03;;;;;;;9.13;7.35;;;8.50;99.90;;;;;;5118994;28;20486;-65
2022/04/11 01:43:30;;;;;;;15.63;8.57;;;8.30;99.90;;;;;;5119278;28;20036;-65
2022/04/11 01:45:56;;;;;;;9.00;7.80;;;8.30;99.90;;;;;;5102306;28;20032;-65
2022/04/11 01:48:36;;;;;;;11.75;7.53;;;8.10;99.90;;;;;;5119476;28;20032;-66
2022/04/11 01:51:03;;;;;;;10.18;8.32;;;8.10;99.90;;;;;;5120071;28;20027;-66
2022/04/11 01:53:29;;;;;;;12.07;8.10;;;8.10;99.90;;;;;;5119852;28;20092;-66
2022/04/11 01:55:55;;;;;;;12.68;8.10;;;8.00;99.90;;;;;;5102097;28;20399;-66
2022/04/11 01:58:24;;;;;;;11.38;8.32;;;7.90;99.90;;;;;;5118881;28;20126;-65
2022/04/11 02:00:50;;;;;;;12.10;8.60;;;7.80;99.90;;;;;;5118846;28;20059;-66
2022/04/11 02:03:17;;;;;;;10.77;7.28;;;7.80;99.90;;;;;;5119536;28;20051;-66
2022/04/11 02:05:43;;;;;;;10.13;8.13;;;7.70;99.90;;;;;;5101751;28;20035;-66
2022/04/11 02:08:13;;;;;;;10.23;7.88;;;7.70;99.90;;;;;;5119471;28;20043;-66
2022/04/11 02:10:41;;;;;;;11.27;8.18;;;7.70;99.90;;;;;;5118740;28;20088;-66
2022/04/11 02:13:07;;;;;;;8.93;7.65;;;7.60;99.90;;;;;;5118558;28;20305;-66
2022/04/11 02:15:33;;;;;;;11.73;8.35;;;7.60;99.90;;;;;;5119363;28;20056;-66
2022/04/11 02:17:59;;;;;;;11.15;8.48;;;7.50;99.90;;;;;;5119329;28;20027;-66
2022/04/11 02:20:26;;;;;;;10.48;7.90;;;7.40;99.90;;;;;;5119340;28;20055;-66
2022/04/11 02:22:53;;;;;;;8.43;7.55;;;7.30;99.90;;;;;;5119121;28;20291;-66
2022/04/11 02:25:24;;;;;;;13.70;8.75;;;7.30;99.90;;;;;;5119123;28;20090;-66
2022/04/11 02:27:52;;;;;;;10.20;8.27;;;7.20;99.90;;;;;;5101462;28;20118;-66
2022/04/11 02:30:18;;;;;;;12.88;8.45;;;7.10;99.90;;;;;;5117889;28;20020;-66
2022/04/11 02:32:45;;;;;;;9.75;7.78;;;7.00;99.90;;;;;;5101256;28;20031;-66
2022/04/11 02:35:11;;;;;;;12.38;8.50;;;7.00;99.90;;;;;;5118205;28;20027;-67
2022/04/11 02:37:38;;;;;;;12.93;8.73;;;7.00;99.90;;;;;;5118024;28;20059;-66
2022/04/11 02:40:05;;;;;;;11.20;8.82;;;7.00;99.90;;;;;;5118333;28;20035;-66
2022/04/11 02:42:35;;;;;;;13.00;8.75;;;7.00;99.90;;;;;;5117926;28;20047;-66
2022/04/11 02:45:08;;;;;;;11.52;8.35;;;7.00;99.90;;;;;;5118276;28;20105;-66
2022/04/11 02:47:34;;;;;;;9.38;8.25;;;7.00;99.90;;;;;;5117830;28;20020;-66
2022/04/11 02:50:00;;;;;;;9.73;8.30;;;6.80;99.90;;;;;;5101106;28;20028;-66
2022/04/11 02:52:41;;;;;;;13.32;8.60;;;6.90;99.90;;;;;;5117866;28;20023;-66
2022/04/11 02:55:08;;;;;;;11.60;8.30;;;6.70;99.90;;;;;;5117791;28;20061;-66
2022/04/11 02:57:36;;;;;;;10.60;8.70;;;6.70;99.90;;;;;;5117725;28;20043;-66
2022/04/11 03:00:06;;;;;;;10.32;8.65;;;6.60;99.90;;;;;;5101061;28;20031;-67
2022/04/11 03:02:32;;;;;;;11.25;8.57;;;6.60;99.90;;;;;;5117634;28;20081;-65
2022/04/11 03:04:59;;;;;;;9.95;8.65;;;6.60;99.90;;;;;;5117549;28;20419;-66
2022/04/11 03:07:27;;;;;;;12.82;9.38;;;6.60;99.90;;;;;;5117515;28;20031;-65
2022/04/11 03:09:54;;;;;;;10.38;8.13;;;6.50;99.90;;;;;;5117534;28;20324;-67
2022/04/11 03:12:24;;;;;;;9.90;8.38;;;6.50;99.90;;;;;;5100804;28;20055;-66
2022/04/11 03:14:50;;;;;;;10.80;8.85;;;6.40;99.90;;;;;;5117453;28;20035;-66
2022/04/11 03:17:17;;;;;;;11.57;9.27;;;6.40;99.90;;;;;;5117425;28;20023;-66
2022/04/11 03:19:44;;;;;;;15.70;9.65;;;6.50;99.90;;;;;;5117315;28;20038;-65
2022/04/11 03:22:11;;;;;;;12.70;9.60;;;6.50;99.90;;;;;;5117227;28;20028;-65
2022/04/11 03:24:39;;;;;;;10.18;8.65;;;6.40;99.90;;;;;;5117193;28;20123;-64
2022/04/11 03:27:06;;;;;;;13.02;8.80;;;6.40;99.90;;;;;;5117235;28;20019;-65
2022/04/11 03:29:35;;;;;;;10.30;8.55;;;6.30;99.90;;;;;;5117187;28;20023;-65
2022/04/11 03:32:01;;;;;;;11.18;8.95;;;6.20;99.90;;;;;;5117055;28;20044;-66
2022/04/11 03:34:30;;;;;;;10.93;9.30;;;6.20;99.90;;;;;;5117847;28;20043;-65
2022/04/11 03:36:55;;;;;;;10.70;8.65;;;6.20;99.90;;;;;;5117025;28;20299;-65
2022/04/11 03:39:24;;;;;;;13.57;9.30;;;6.10;99.90;;;;;;5100480;28;20044;-65
2022/04/11 03:41:50;;;;;;;10.45;9.02;;;6.10;99.90;;;;;;5116435;28;20397;-65
2022/04/11 03:44:21;;;;;;;11.93;9.07;;;6.00;99.90;;;;;;5117138;28;20046;-65
2022/04/11 03:46:50;;;;;;;14.98;9.65;;;6.00;99.90;;;;;;5116882;28;20032;-66
2022/04/11 03:49:21;;;;;;;15.93;9.07;;;5.90;99.90;;;;;;5117002;28;20084;-66
2022/04/11 03:51:48;;;;;;;10.32;9.00;;;5.90;99.90;;;;;;5116762;28;20327;-66
2022/04/11 03:54:14;;;;;;;12.20;9.40;;;6.00;99.90;;;;;;5117574;28;20027;-67
2022/04/11 03:56:39;;;;;;;10.95;8.85;;;6.00;99.90;;;;;;5117163;28;20376;-66
2022/04/11 03:59:07;;;;;;;12.65;8.57;;;5.90;99.90;;;;;;5117153;28;20307;-66
2022/04/11 04:01:33;;;;;;;10.13;9.07;;;5.80;99.90;;;;;;5116673;28;20315;-66
2022/04/11 04:04:01;;;;;;;12.18;9.65;;;5.80;99.90;;;;;;5116613;28;20118;-66
2022/04/11 04:06:27;;;;;;;11.45;9.02;;;5.80;99.90;;;;;;5116505;28;20123;-67
2022/04/11 04:08:53;;;;;;;11.85;8.45;;;5.80;99.90;;;;;;5099788;28;20023;-67
2022/04/11 04:11:27;;;;;;;11.55;8.70;;;5.70;99.90;;;;;;5116592;28;20032;-67
2022/04/11 04:14:19;;;;;;;11.13;9.43;;;5.70;99.90;;;;;;5101680;28;20039;-67
2022/04/11 04:16:50;;;;;;;11.65;9.55;;;5.60;99.90;;;;;;5117463;28;20042;-67
2022/04/11 04:19:19;;;;;;;13.35;9.35;;;5.70;99.90;;;;;;5116576;28;20070;-67
2022/04/11 04:21:46;;;;;;;13.80;9.52;;;5.60;99.90;;;;;;5116467;28;20048;-67
2022/04/11 04:24:14;;;;;;;13.48;9.57;;;5.60;99.90;;;;;;5099853;28;20031;-67
2022/04/11 04:26:44;;;;;;;13.13;8.93;;;5.60;99.90;;;;;;5099547;28;20024;-68
2022/04/11 04:29:12;;;;;;;10.13;9.07;;;5.50;99.90;;;;;;5117426;28;20040;-68
2022/04/11 04:31:43;;;;;;;12.48;9.63;;;5.50;99.90;;;;;;5100144;28;20107;-68
2022/04/11 04:34:09;;;;;;;13.95;9.60;;;5.40;99.90;;;;;;5116385;28;20035;-67
2022/04/11 04:36:35;;;;;;;12.27;8.90;;;5.40;99.90;;;;;;5117079;28;20092;-67
2022/04/11 04:39:03;;;;;;;12.45;9.13;;;5.40;99.90;;;;;;5116449;28;20280;-68
2022/04/11 04:41:31;;;;;;;12.00;9.73;;;5.40;99.90;;;;;;5116144;28;20122;-68
2022/04/11 04:43:57;;;;;;;15.07;10.57;;;5.40;99.90;;;;;;5116474;28;20364;-67
2022/04/11 04:46:23;;;;;;;16.80;11.25;;;5.50;99.90;;;;;;5116188;28;20085;-67
2022/04/11 04:48:52;;;;;;;14.20;10.68;;;5.50;99.90;;;;;;5116269;28;20032;-67
2022/04/11 04:51:20;;;;;;;12.80;9.93;;;5.60;99.90;;;;;;5116224;28;20349;-67
2022/04/11 04:53:56;;;;;;;11.98;9.80;;;5.70;99.90;;;;;;5118563;28;20036;-67
2022/04/11 04:56:24;;;;;;;12.93;9.23;;;5.60;99.90;;;;;;5120112;28;20059;-67
2022/04/11 04:58:51;;;;;;;12.35;9.65;;;5.50;99.90;;;;;;5103558;28;20284;-67
2022/04/11 05:01:17;;;;;;;13.40;9.15;;;5.50;99.90;;;;;;5120041;28;20096;-67
2022/04/11 05:03:51;;;;;;;11.27;9.00;;;5.50;99.90;;;;;;5119719;28;20043;-67
2022/04/11 05:06:22;;;;;;;12.32;9.00;;;5.50;99.90;;;;;;5103507;28;20120;-67
2022/04/11 05:08:49;;;;;;;16.98;9.70;;;5.50;99.90;;;;;;5086579;28;20027;-67
2022/04/11 05:11:15;;;;;;;12.63;9.45;;;5.60;99.90;;;;;;5119575;28;20117;-67
2022/04/11 05:13:40;;;;;;;12.07;9.50;;;5.60;99.90;;;;;;5120474;28;20066;-67
2022/04/11 05:16:06;;;;;;;11.85;8.93;;;5.60;99.90;;;;;;5102843;28;20027;-67
2022/04/11 05:18:34;;;;;;;10.35;8.35;;;5.70;99.90;;;;;;5119581;28;20094;-67
2022/04/11 05:21:00;;;;;;;11.50;8.68;;;5.70;99.90;;;;;;5119928;28;20032;-67
2022/04/11 05:23:29;;;;;;;11.57;9.35;;;5.70;99.90;;;;;;5119569;28;20058;-67
2022/04/11 05:25:56;;;;;;;10.07;8.00;;;5.80;99.90;;;;;;5120241;28;20024;-67
2022/04/11 05:28:24;;;;;;;11.88;8.10;;;5.80;99.90;;;;;;5119489;28;20307;-67
2022/04/11 05:30:57;;;;;;;11.95;8.35;;;5.90;99.90;;;;;;5119466;28;20027;-66
2022/04/11 05:33:23;;;;;;;12.43;8.40;;;6.00;99.90;;;;;;5120212;28;20042;-67
2022/04/11 05:35:49;;;;;;;10.63;8.00;;;6.10;99.90;;;;;;5119302;28;20344;-67
2022/04/11 05:38:16;;;;;;;11.50;8.57;;;6.10;99.90;;;;;;5119306;28;20031;-67
2022/04/11 05:40:44;;;;;;;11.90;8.57;;;6.30;99.90;;;;;;5102447;28;20031;-67
2022/04/11 05:43:13;;;;;;;14.68;8.27;;;6.30;99.90;;;;;;5119034;28;20062;-67
2022/04/11 05:45:40;;;;;;;14.38;7.80;;;6.30;99.90;;;;;;5102761;28;20441;-67
2022/04/11 05:48:06;;;;;;;9.60;7.45;;;6.30;99.90;;;;;;5119232;28;20035;-66
2022/04/11 05:50:32;;;;;;;10.63;7.00;;;6.50;99.90;;;;;;5120290;28;20077;-67
2022/04/11 05:52:59;;;;;;;9.25;6.90;;;6.60;99.90;;;;;;5119873;28;20069;-68
2022/04/11 05:55:24;;;;;;;10.10;7.15;;;6.60;99.90;;;;;;5102083;28;20032;-67
2022/04/11 05:57:51;;;;;;;7.30;6.60;;;6.60;99.90;;;;;;5118890;28;20038;-67
2022/04/11 06:00:17;;;;;;;9.70;6.82;;;6.70;99.90;;;;;;5102432;28;20038;-67
2022/04/11 06:02:45;;;;;;;11.50;7.80;;;6.80;99.90;;;;;;5102189;28;20068;-67
2022/04/11 06:05:13;;;;;;;9.88;6.85;;;6.80;99.90;;;;;;5117848;28;20089;-67
2022/04/11 06:07:40;;;;;;;9.52;6.82;;;7.00;99.90;;;;;;5101894;28;20359;-67
2022/04/11 06:10:08;;;;;;;10.63;6.78;;;7.00;99.90;;;;;;5118727;28;20042;-66
2022/04/11 06:12:34;;;;;;;9.43;6.60;;;7.10;99.90;;;;;;5101488;28;20106;-66
2022/04/11 06:15:01;;;;;;;12.25;6.75;;;7.20;99.90;;;;;;5118503;28;20076;-67
2022/04/11 06:17:29;;;;;;;12.18;7.20;;;7.20;99.90;;;;;;5118490;28;20032;-68
2022/04/11 06:19:57;;;;;;;10.05;6.57;;;7.20;99.90;;;;;;5118476;28;20032;-68
2022/04/11 06:22:23;;;;;;;10.57;7.07;;;7.20;99.90;;;;;;5119176;28;20096;-68
2022/04/11 06:24:50;;;;;;;7.32;6.28;;;7.30;99.90;;;;;;5118538;28;20019;-67
2022/04/11 06:27:18;;;;;;;9.52;6.40;;;7.30;99.90;;;;;;5118260;28;20024;-68
2022/04/11 06:29:44;;;;;;;11.18;6.25;;;7.50;99.90;;;;;;5118172;28;20066;-68
2022/04/11 06:32:10;;;;;;;7.88;5.57;;;7.50;99.90;;;;;;5118214;28;20402;-68
2022/04/11 06:34:39;;;;;;;11.82;6.50;;;7.60;99.90;;;;;;5118188;28;20372;-67
2022/04/11 06:37:05;;;;;;;9.18;6.13;;;7.80;99.90;;;;;;5118045;28;20066;-68
2022/04/11 06:39:31;;;;;;;7.57;6.05;;;7.90;99.90;;;;;;5119044;28;20108;-67
2022/04/11 06:41:58;;;;;;;11.20;5.88;;;8.00;99.90;;;;;;5118150;28;20307;-68
2022/04/11 06:44:27;;;;;;;7.43;4.38;;;8.10;99.90;;;;;;5117895;28;20100;-68
2022/04/11 06:47:05;;;;;;;7.38;5.07;;;8.10;99.90;;;;;;5118026;28;20055;-68
2022/04/11 06:49:31;;;;;;;9.73;4.97;;;8.10;99.90;;;;;;5117989;28;20039;-68
2022/04/11 06:51:57;;;;;;;7.25;4.75;;;8.10;99.90;;;;;;5117858;28;20023;-68
2022/04/11 06:54:23;;;;;;;6.88;4.70;;;8.10;99.90;;;;;;5118509;28;20047;-68
2022/04/11 06:56:49;;;;;;;9.98;5.20;;;8.10;99.90;;;;;;5118387;28;20027;-67
2022/04/11 06:59:15;;;;;;;5.47;4.38;;;8.30;99.90;;;;;;5117786;28;20059;-67
2022/04/11 07:01:42;;;;;;;6.10;4.43;;;8.40;99.90;;;;;;5118570;28;20043;-67
2022/04/11 07:04:08;;;;;;;8.00;4.85;;;8.40;99.90;;;;;;5117624;28;20111;-66
2022/04/11 07:06:34;;;;;;;7.30;4.88;;;8.60;99.90;;;;;;5117622;28;20028;-68
2022/04/11 07:09:00;;;;;;;9.68;5.75;;;8.70;99.90;;;;;;5100875;28;20350;-67
2022/04/11 07:11:26;;;;;;;7.53;5.15;;;8.80;99.90;;;;;;5117513;28;20055;-67
2022/04/11 07:13:52;;;;;;;11.30;5.53;;;8.80;99.90;;;;;;5118374;28;20104;-67
2022/04/11 07:16:18;;;;;;;10.57;6.10;;;8.90;99.90;;;;;;5118054;28;20032;-65
2022/04/11 07:18:46;;;;;;;13.30;7.05;;;9.10;99.90;;;;;;5118049;28;20028;-67
2022/04/11 07:21:12;;;;;;;14.52;7.78;;;9.20;99.90;;;;;;5118090;28;20028;-66
2022/04/11 07:23:38;;;;;;;15.35;7.53;;;9.40;99.90;;;;;;5117896;28;20047;-66
2022/04/11 07:26:04;;;;;;;16.92;8.75;;;9.50;99.90;;;;;;5117313;28;20099;-66
2022/04/11 07:28:30;;;;;;;19.40;9.50;;;9.50;99.90;;;;;;5100906;28;20111;-66
2022/04/11 07:30:55;;;;;;;11.45;6.75;;;9.50;99.90;;;;;;5118113;28;20034;-67
2022/04/11 07:33:21;;;;;;;8.68;5.10;;;9.70;99.90;;;;;;5117882;28;20051;-67
2022/04/11 07:35:47;;;;;;;8.73;5.03;;;9.70;99.90;;;;;;5100122;28;20059;-67
2022/04/11 07:38:13;;;;;;;7.63;4.10;;;9.90;99.90;;;;;;5117867;28;20068;-65
2022/04/11 07:40:38;;;;;;;5.93;3.60;;;10.10;99.90;;;;;;5117049;28;20024;-66
2022/04/11 07:43:04;;;;;;;5.30;3.42;;;10.30;99.90;;;;;;5117489;28;20053;-66
2022/04/11 07:45:31;;;;;;;6.45;3.35;;;10.40;99.90;;;;;;5116814;28;20047;-66
2022/04/11 07:47:57;;;;;;;4.95;3.10;;;10.50;99.90;;;;;;5117613;28;20027;-66
2022/04/11 07:50:23;;;;;;;5.35;3.38;;;10.40;99.90;;;;;;5116853;28;20039;-63
2022/04/11 07:52:49;;;;;;;4.50;3.00;;;10.40;99.90;;;;;;5116801;28;20047;-66
2022/04/11 07:55:15;;;;;;;4.18;3.00;;;10.40;99.90;;;;;;5117618;28;20110;-65
2022/04/11 07:57:41;;;;;;;4.38;2.97;;;10.50;99.90;;;;;;5117535;28;20383;-67
2022/04/11 08:00:08;;;;;;;4.97;3.17;;;10.50;99.90;;;;;;5117624;28;20060;-66
2022/04/11 08:02:38;;;;;;;4.40;2.47;;;10.50;99.90;;;;;;5117559;28;20118;-68
2022/04/11 08:05:05;;;;;;;6.90;3.30;;;10.50;99.90;;;;;;5116599;28;20103;-67
2022/04/11 08:07:35;;;;;;;7.38;3.00;;;10.50;99.90;;;;;;5082999;28;20034;-67
2022/04/11 08:10:05;;;;;;;5.43;2.88;;;10.40;99.90;;;;;;5117852;28;20058;-68
2022/04/11 08:12:32;;;;;;;3.55;2.67;;;10.60;99.90;;;;;;5117388;28;20020;-67
2022/04/11 08:14:59;;;;;;;5.22;2.85;;;10.70;99.90;;;;;;5117349;28;20391;-68
2022/04/11 08:17:26;;;;;;;3.05;2.50;;;10.80;99.90;;;;;;5099670;28;20042;-67
2022/04/11 08:19:52;;;;;;;6.03;2.63;;;10.90;99.90;;;;;;5117745;28;20023;-67
2022/04/11 08:22:18;;;;;;;5.95;5.40;;;11.00;99.90;;;;;;5116505;28;20027;-67
2022/04/11 08:24:44;;;;;;;5.03;2.80;;;10.90;99.90;;;;;;5117147;28;20411;-66
2022/04/11 08:27:10;;;;;;;5.20;2.75;;;11.00;99.90;;;;;;5082908;28;20160;-67
2022/04/11 08:29:36;;;;;;;3.15;2.35;;;11.20;99.90;;;;;;5120173;28;20023;-67
2022/04/11 08:32:02;;;;;;;6.65;2.83;;;11.30;99.90;;;;;;5120542;28;20035;-66
2022/04/11 08:34:28;;;;;;;5.40;2.78;;;11.40;99.90;;;;;;5121687;28;20035;-67
2022/04/11 08:36:54;;;;;;;4.97;2.67;;;11.50;99.90;;;;;;5120320;28;20398;-66
2022/04/11 08:39:20;;;;;;;3.35;2.30;;;11.70;99.90;;;;;;5120870;28;20040;-66
2022/04/11 08:41:46;;;;;;;4.38;2.20;;;11.70;99.90;;;;;;5120352;28;20134;-67
2022/04/11 08:44:13;;;;;;;3.80;2.40;;;11.60;99.90;;;;;;5120251;28;20130;-66
2022/04/11 08:46:39;;;;;;;4.25;2.45;;;11.60;99.90;;;;;;5121088;28;20105;-66
2022/04/11 08:49:07;;;;;;;4.95;2.10;;;11.60;99.90;;;;;;5121485;28;20035;-68
2022/04/11 08:51:34;;;;;;;3.80;2.30;;;11.70;99.90;;;;;;5121030;28;20062;-66
2022/04/11 08:54:01;;;;;;;5.07;2.30;;;11.80;99.90;;;;;;5103218;28;20031;-66
2022/04/11 08:56:31;;;;;;;6.10;2.83;;;12.10;99.90;;;;;;5121028;28;20039;-66
2022/04/11 08:58:58;;;;;;;6.05;2.70;;;12.20;99.90;;;;;;5121006;28;20031;-67
2022/04/11 09:01:24;;;;;;;3.28;2.13;;;12.30;99.90;;;;;;5103308;28;20387;-67
2022/04/11 09:03:50;;;;;;;4.18;2.10;;;12.40;99.90;;;;;;5119913;28;20290;-66
2022/04/11 09:06:18;;;;;;;3.97;2.00;;;12.50;99.90;;;;;;5120954;28;20028;-68
2022/04/11 09:08:51;;;;;;;3.42;1.92;;;12.40;99.90;;;;;;5120029;28;20027;-66
2022/04/11 09:11:36;;;;;;;5.00;1.80;;;12.40;99.90;;;;;;5120564;28;20030;-67
2022/04/11 09:14:07;;;;;;;3.45;1.70;;;12.40;99.90;;;;;;5119963;28;20043;-68
2022/04/11 09:16:49;;;;;;;3.42;1.90;;;12.60;99.90;;;;;;5119895;28;20036;-67
2022/04/11 09:19:23;;;;;;;3.83;2.00;;;12.50;99.90;;;;;;5119923;28;20057;-68
2022/04/11 09:21:50;;;;;;;4.07;1.83;;;12.60;99.90;;;;;;5120561;28;20040;-68
2022/04/11 09:24:22;;;;;;;3.40;1.85;;;12.70;99.90;;;;;;5119506;28;20020;-69
2022/04/11 09:26:55;;;;;;;2.93;1.60;;;12.90;99.90;;;;;;5119615;28;20019;-65
2022/04/11 09:29:31;;;;;;;2.78;1.67;;;13.20;99.90;;;;;;5119643;28;20024;-66
2022/04/11 09:32:03;;;;;;;3.33;1.92;;;13.20;99.90;;;;;;5120319;28;20024;-67
2022/04/11 09:34:29;;;;;;;3.92;1.80;;;13.40;99.90;;;;;;5120225;28;20040;-68
2022/04/11 09:36:58;;;;;;;2.65;1.58;;;13.40;99.90;;;;;;5119359;28;20368;-67
2022/04/11 09:39:32;;;;;;;4.68;1.77;;;13.50;99.90;;;;;;5118923;28;20024;-66
2022/04/11 09:41:58;;;;;;;4.15;1.83;;;13.50;99.90;;;;;;5119964;28;20047;-66
2022/04/11 09:44:27;;;;;;;5.45;1.70;;;13.50;99.90;;;;;;5119962;28;20299;-66
2022/04/11 09:46:55;;;;;;;4.53;1.60;;;13.60;99.90;;;;;;5119894;28;20031;-68
2022/04/11 09:49:22;;;;;;;2.55;1.80;;;13.60;99.90;;;;;;5120501;28;20023;-67
2022/04/11 09:52:07;;;;;;;2.75;1.80;;;13.70;99.90;;;;;;5119822;28;20042;-65
2022/04/11 09:54:37;;;;;;;4.00;1.90;;;13.90;99.90;;;;;;5119902;28;20107;-67
2022/04/11 09:57:05;;;;;;;3.00;1.55;;;13.90;99.90;;;;;;5119717;28;20032;-68
2022/04/11 09:59:31;;;;;;;3.10;1.70;;;14.10;99.90;;;;;;5120239;28;20058;-67
2022/04/11 10:01:57;;;;;;;3.05;1.80;;;14.40;99.90;;;;;;5101968;28;20032;-67
2022/04/11 10:04:24;;;;;;;3.03;1.70;;;14.70;99.90;;;;;;5119835;28;20351;-66
2022/04/11 10:06:51;;;;;;;4.90;1.60;;;14.80;99.90;;;;;;5119559;28;20034;-67
2022/04/11 10:09:23;;;;;;;3.40;1.80;;;14.70;99.90;;;;;;5119361;28;20456;-67
2022/04/11 10:11:52;;;;;;;5.60;2.15;;;14.60;99.90;;;;;;5119625;28;20349;-63
2022/04/11 10:14:26;;;;;;;4.30;1.70;;;14.50;99.90;;;;;;5119434;28;20047;-67
2022/04/11 10:16:57;;;;;;;2.63;1.65;;;14.30;99.90;;;;;;5119467;28;20032;-66
2022/04/11 10:19:29;;;;;;;4.13;1.80;;;14.40;99.90;;;;;;5120010;28;20040;-68
2022/04/11 10:22:01;;;;;;;3.87;1.70;;;14.60;99.90;;;;;;5119368;28;20043;-67
2022/04/11 10:24:35;;;;;;;2.17;1.45;;;14.80;99.90;;;;;;5119119;28;20324;-66
2022/04/11 10:27:34;;;;;;;4.30;1.48;;;15.20;99.90;;;;;;5119339;28;20050;-67
2022/04/11 10:30:02;;;;;;;2.53;1.67;;;15.60;99.90;;;;;;5063929;28;20094;-65
2022/04/11 10:32:30;;;;;;;3.08;1.85;;;15.40;98.60;;;;;;5118289;28;20062;-67
2022/04/11 10:35:01;;;;;;;4.35;2.08;;;15.40;98.80;;;;;;5118204;28;20035;-67
2022/04/11 10:37:39;;;;;;;3.80;2.10;;;15.40;99.60;;;;;;5118940;28;20023;-67
2022/04/11 10:40:17;;;;;;;3.30;1.73;;;15.70;99.60;;;;;;5118051;28;20402;-67
2022/04/11 10:43:04;;;;;;;2.55;1.60;;;15.90;98.30;;;;;;5117947;28;20047;-67
2022/04/11 10:45:31;;;;;;;2.35;1.55;;;16.30;97.70;;;;;;5118967;28;20043;-70
2022/04/11 10:47:57;;;;;;;3.25;1.40;;;17.00;94.90;;;;;;5118756;28;20362;-67
2022/04/11 10:50:26;;;;;;;3.67;1.75;;;16.80;94.30;;;;;;5118588;28;20107;-66
2022/04/11 10:53:05;;;;;;;4.35;1.70;;;17.20;95.40;;;;;;5118684;28;20076;-70
2022/04/11 10:55:31;;;;;;;3.83;1.30;;;17.90;92.60;;;;;;5118747;28;20034;-67
2022/04/11 10:57:59;;;;;;;3.42;1.70;;;18.50;92.60;;;;;;5118604;28;20119;-67
2022/04/11 11:00:33;;;;;;;2.65;1.30;;;18.90;91.00;;;;;;5118418;28;20028;-66
2022/04/11 11:03:04;;;;;;;2.63;1.60;;;19.20;90.00;;;;;;5118502;28;20035;-68
2022/04/11 11:05:50;;;;;;;3.35;1.90;;;19.00;86.80;;;;;;5118302;28;20070;-67
2022/04/11 11:08:17;;;;;;;3.05;1.70;;;18.70;88.50;;;;;;5118483;28;20140;-70
2022/04/11 11:10:47;;;;;;;2.85;1.40;;;19.50;88.20;;;;;;5118382;28;20062;-69
2022/04/11 11:13:34;;;;;;;2.75;1.60;;;20.10;84.70;;;;;;5100605;28;20123;-68
2022/04/11 11:16:01;;;;;;;3.28;1.50;;;20.20;81.70;;;;;;5118257;28;20311;-68
2022/04/11 11:18:52;;;;;;;2.20;1.40;;;20.10;79.80;;;;;;5118097;28;20028;-67
2022/04/11 11:21:44;;;;;;;2.42;1.30;;;20.30;77.20;;;;;;5117829;28;20110;-67
2022/04/11 11:24:12;;;;;;;1.73;1.30;;;20.20;77.40;;;;;;5117673;28;20024;-67
2022/04/11 11:26:52;;;;;;;2.88;1.60;;;19.80;75.60;;;;;;5100595;28;20277;-69
2022/04/11 11:29:32;;;;;;;2.95;1.77;;;19.90;74.50;;;;;;5117878;28;20042;-68
2022/04/11 11:32:04;;;;;;;3.55;1.50;;;20.00;74.10;;;;;;5117307;28;20032;-68
2022/04/11 11:34:31;;;;;;;;;;;20.40;73.80;;;;;;5118434;28;20421;-68
2022/04/11 11:37:02;;;;;;;4.05;1.60;;;21.10;73.30;;;;;;5100036;28;19963;-69
2022/04/11 11:39:30;;;;;;;3.60;1.55;;;20.80;72.00;;;;;;5117149;28;20046;-69
2022/04/11 11:42:07;;;;;;;5.18;1.63;;;20.50;72.90;;;;;;5099838;28;20189;-68
2022/04/11 11:44:42;;;;;;;2.67;1.63;;;19.80;73.20;;;;;;5118311;28;20272;-68
2022/04/11 11:47:08;;;;;;;5.13;1.60;;;20.60;73.80;;;;;;5099988;28;20031;-69
2022/04/11 11:49:47;;;;;;;3.75;1.77;;;20.80;72.40;;;;;;5100122;28;20299;-69
2022/04/11 11:52:15;;;;;;;2.97;1.63;;;20.50;70.90;;;;;;5117011;28;20035;-70
2022/04/11 11:54:43;;;;;;;4.65;2.20;;;20.70;72.20;;;;;;5117664;28;20291;-70
2022/04/11 11:57:17;;;;;;;3.65;2.13;;;21.10;69.50;;;;;;5116651;28;20034;-70
2022/04/11 11:59:59;;;;;;;2.92;1.80;;;21.00;70.30;;;;;;5116697;28;20118;-70
2022/04/11 12:05:25;;;;;;;5.07;2.00;;;21.20;70.50;;;;;;5117903;28;20028;-68
2022/04/11 12:08:04;;;;;;;7.00;1.88;;;21.60;72.20;;;;;;5117454;28;20275;-70
2022/04/11 12:10:31;;;;;;;3.47;2.03;;;22.20;68.40;;;;;;5117439;28;20031;-67
2022/04/11 12:12:57;;;;;;;2.58;1.58;;;21.60;66.80;;;;;;5116732;28;20323;-67
2022/04/11 12:15:23;;;;;;;4.18;2.03;;;21.20;67.90;;;;;;5117365;28;20031;-68
2022/04/11 12:17:59;;;;;;;1.83;1.73;;;21.30;67.50;;;;;;5117410;28;20513;-67
2022/04/11 12:20:25;;;;;;;2.58;1.80;;;21.10;66.80;;;;;;5116456;28;20398;-69
2022/04/11 12:23:04;;;;;;;2.22;1.70;;;20.50;68.10;;;;;;5099322;28;20027;-68
2022/04/11 12:25:34;;;;;;;3.45;2.05;;;20.70;68.00;;;;;;5099315;28;20023;-68
2022/04/11 12:28:20;;;;;;;2.75;1.90;;;21.30;67.10;;;;;;5117275;28;20064;-69
2022/04/11 12:30:49;;;;;;;2.65;2.00;;;22.00;67.40;;;;;;5117178;28;20268;-66
2022/04/11 12:33:33;;;;;;;6.40;2.00;;;22.10;63.70;;;;;;5117178;28;20024;-69
2022/04/11 12:36:12;;;;;;;4.10;1.85;;;21.80;65.30;;;;;;5116608;28;20043;-68
2022/04/11 12:38:43;;;;;;;4.78;2.40;;;21.70;65.70;;;;;;5117114;28;20127;-69
2022/04/11 12:41:29;;;;;;;3.83;2.22;;;22.20;63.60;;;;;;5116325;28;20291;-69
2022/04/11 12:44:18;;;;;;;4.32;2.15;;;22.70;64.60;;;;;;5116406;28;20035;-69
2022/04/11 12:46:56;;;;;;;3.25;2.10;;;23.10;61.60;;;;;;5099378;28;20035;-70
2022/04/11 12:49:23;;;;;;;3.83;2.25;;;23.30;60.30;;;;;;5116360;28;20028;-69
2022/04/11 12:52:05;;;;;;;2.72;1.90;;;22.50;61.80;;;;;;5117031;28;20031;-69
2022/04/11 12:54:39;;;;;;;3.35;2.00;;;22.80;62.50;;;;;;5117030;28;20066;-68
2022/04/11 12:57:10;;;;;;;2.92;2.00;;;22.50;61.80;;;;;;5117112;28;20043;-70
2022/04/11 12:59:45;;;;;;;2.30;2.10;;;22.70;61.50;;;;;;5117066;28;20388;-72